createdAt,value
2017-01-23T00:00:05.264Z,45.48
2017-01-23T00:00:45.922Z,45.57
2017-01-23T00:01:26.680Z,45.57
2017-01-23T00:02:07.395Z,45.38
2017-01-23T00:02:48.072Z,45.48
2017-01-23T00:03:28.676Z,45.48
2017-01-23T00:04:09.362Z,45.38
2017-01-23T00:04:49.989Z,45.48
2017-01-23T00:05:30.711Z,45.57
2017-01-23T00:06:11.450Z,45.38
2017-01-23T00:06:52.124Z,45.48
2017-01-23T00:07:32.750Z,45.48
2017-01-23T00:08:13.477Z,45.57
2017-01-23T00:08:54.223Z,45.57
2017-01-23T00:09:34.863Z,45.38
2017-01-23T00:10:15.492Z,45.38
2017-01-23T00:10:56.175Z,45.57
2017-01-23T00:11:36.816Z,45.48
2017-01-23T00:12:17.443Z,45.57
2017-01-23T00:12:58.107Z,45.57
2017-01-23T00:13:38.739Z,45.48
2017-01-23T00:14:19.460Z,45.57
2017-01-23T00:15:00.173Z,45.48
2017-01-23T00:15:40.822Z,45.38
2017-01-23T00:16:21.481Z,45.48
2017-01-23T00:17:02.206Z,45.57
2017-01-23T00:17:42.883Z,45.48
2017-01-23T00:18:23.514Z,45.38
2017-01-23T00:19:04.161Z,45.48
2017-01-23T00:19:44.883Z,45.48
2017-01-23T00:20:25.507Z,45.48
2017-01-23T00:21:06.140Z,45.48
2017-01-23T00:21:46.781Z,45.48
2017-01-23T00:22:27.414Z,45.38
2017-01-23T00:23:08.035Z,45.48
2017-01-23T00:23:48.757Z,45.57
2017-01-23T00:24:29.396Z,45.57
2017-01-23T00:25:10.130Z,45.57
2017-01-23T00:25:50.853Z,45.67
2017-01-23T00:26:31.512Z,45.67
2017-01-23T00:27:12.177Z,45.76
2017-01-23T00:27:52.900Z,45.67
2017-01-23T00:28:33.627Z,45.76
2017-01-23T00:29:14.314Z,45.67
2017-01-23T00:29:54.969Z,45.76
2017-01-23T00:30:35.711Z,45.76
2017-01-23T00:31:16.456Z,45.29
2017-01-23T00:31:57.105Z,45.57
2017-01-23T00:32:38.378Z,45.67
2017-01-23T00:33:19.037Z,45.57
2017-01-23T00:33:59.686Z,45.57
2017-01-23T00:34:40.369Z,45.48
2017-01-23T00:35:21.013Z,45.57
2017-01-23T00:36:01.673Z,45.38
2017-01-23T00:36:42.371Z,45.38
2017-01-23T00:37:23.006Z,45.57
2017-01-23T00:38:03.714Z,45.38
2017-01-23T00:38:44.376Z,45.48
2017-01-23T00:39:25.005Z,45.48
2017-01-23T00:40:05.667Z,45.38
2017-01-23T00:40:46.306Z,45.38
2017-01-23T00:41:26.940Z,45.38
2017-01-23T00:42:07.595Z,45.48
2017-01-23T00:42:48.316Z,45.48
2017-01-23T00:43:28.923Z,45.48
2017-01-23T00:44:09.571Z,45.57
2017-01-23T00:44:50.249Z,45.48
2017-01-23T00:45:30.896Z,45.67
2017-01-23T00:46:11.554Z,45.57
2017-01-23T00:46:52.251Z,45.57
2017-01-23T00:47:32.930Z,45.76
2017-01-23T00:48:13.578Z,45.76
2017-01-23T00:48:54.302Z,45.48
2017-01-23T00:49:34.982Z,45.67
2017-01-23T00:50:15.619Z,45.19
2017-01-23T00:50:56.272Z,45.19
2017-01-23T00:51:37.033Z,45.38
2017-01-23T00:52:17.662Z,45.76
2017-01-23T00:52:58.298Z,45.57
2017-01-23T00:53:38.950Z,45.76
2017-01-23T00:54:19.585Z,45.67
2017-01-23T00:55:00.219Z,45.57
2017-01-23T00:55:40.895Z,45.76
2017-01-23T00:56:21.522Z,45.57
2017-01-23T00:57:02.229Z,45.67
2017-01-23T00:57:42.956Z,45.57
2017-01-23T00:58:23.649Z,45.57
2017-01-23T00:59:04.297Z,45.48
2017-01-23T00:59:44.978Z,45.57
2017-01-23T01:00:25.607Z,45.57
2017-01-23T01:01:06.253Z,45.38
2017-01-23T01:01:46.949Z,45.67
2017-01-23T01:02:27.664Z,45.86
2017-01-23T01:03:08.298Z,45.48
2017-01-23T01:03:48.929Z,45.96
2017-01-23T01:04:29.652Z,45.96
2017-01-23T01:05:10.296Z,45.48
2017-01-23T01:05:50.980Z,45.38
2017-01-23T01:06:31.611Z,45.76
2017-01-23T01:07:12.256Z,45.76
2017-01-23T01:07:52.922Z,45.76
2017-01-23T01:08:33.663Z,45.67
2017-01-23T01:09:14.356Z,45.29
2017-01-23T01:09:54.997Z,45.19
2017-01-23T01:10:35.662Z,45.19
2017-01-23T01:11:16.300Z,45.19
2017-01-23T01:11:56.937Z,45.19
2017-01-23T01:12:37.621Z,45.09
2017-01-23T01:13:18.246Z,45.29
2017-01-23T01:13:58.900Z,45.19
2017-01-23T01:14:39.548Z,45.09
2017-01-23T01:15:20.233Z,45.19
2017-01-23T01:16:00.861Z,45.19
2017-01-23T01:16:41.502Z,45.09
2017-01-23T01:17:22.145Z,45
2017-01-23T01:18:02.778Z,45.19
2017-01-23T01:18:43.415Z,45.67
2017-01-23T01:19:24.078Z,45.57
2017-01-23T01:20:04.723Z,45.38
2017-01-23T01:20:45.436Z,45.76
2017-01-23T01:21:26.162Z,45.48
2017-01-23T01:22:06.793Z,45.57
2017-01-23T01:22:47.469Z,45.76
2017-01-23T01:23:28.173Z,45.76
2017-01-23T01:24:08.866Z,45.19
2017-01-23T01:24:49.458Z,45.38
2017-01-23T01:25:30.137Z,45.29
2017-01-23T01:26:10.860Z,45
2017-01-23T01:26:51.502Z,45
2017-01-23T01:27:32.144Z,45
2017-01-23T01:28:12.833Z,45.09
2017-01-23T01:28:53.464Z,45
2017-01-23T01:29:34.182Z,45.29
2017-01-23T01:30:14.898Z,45.29
2017-01-23T01:30:55.530Z,45.67
2017-01-23T01:31:36.207Z,45.57
2017-01-23T01:32:16.834Z,45.19
2017-01-23T01:32:57.462Z,45.76
2017-01-23T01:33:38.135Z,45.57
2017-01-23T01:34:18.788Z,45.38
2017-01-23T01:34:59.412Z,45.67
2017-01-23T01:35:40.060Z,45.38
2017-01-23T01:36:20.758Z,45.76
2017-01-23T01:37:01.390Z,45.19
2017-01-23T01:37:42.010Z,45.19
2017-01-23T01:38:22.687Z,45.19
2017-01-23T01:39:03.316Z,45.19
2017-01-23T01:39:44.029Z,45.19
2017-01-23T01:40:24.775Z,45.19
2017-01-23T01:41:05.424Z,45.09
2017-01-23T01:41:46.064Z,45
2017-01-23T01:42:26.768Z,45.19
2017-01-23T01:43:07.457Z,45.29
2017-01-23T01:43:48.099Z,45.09
2017-01-23T01:44:28.809Z,45
2017-01-23T01:45:09.500Z,45
2017-01-23T01:45:50.247Z,45.19
2017-01-23T01:46:30.810Z,45.09
2017-01-23T01:47:11.552Z,45.19
2017-01-23T01:47:52.225Z,45.29
2017-01-23T01:48:32.876Z,45.19
2017-01-23T01:49:13.566Z,45.09
2017-01-23T01:49:54.197Z,45.19
2017-01-23T01:50:34.832Z,45.48
2017-01-23T01:51:15.465Z,45.38
2017-01-23T01:51:56.121Z,45.67
2017-01-23T01:52:36.749Z,45.67
2017-01-23T01:53:17.459Z,45.48
2017-01-23T01:53:58.097Z,45.57
2017-01-23T01:54:38.753Z,45.38
2017-01-23T01:55:19.491Z,45.19
2017-01-23T01:56:00.120Z,45.76
2017-01-23T01:56:40.753Z,45.57
2017-01-23T01:57:21.396Z,45.45
2017-01-23T01:58:02.083Z,45.45
2017-01-23T01:58:42.712Z,45.48
2017-01-23T01:59:23.431Z,45.57
2017-01-23T02:00:04.207Z,45.76
2017-01-23T02:00:44.898Z,45.67
2017-01-23T02:01:25.545Z,45.67
2017-01-23T02:02:06.295Z,45.67
2017-01-23T02:02:46.940Z,45.57
2017-01-23T02:03:27.568Z,45.29
2017-01-23T02:04:08.270Z,45.19
2017-01-23T02:04:48.938Z,45.09
2017-01-23T02:05:29.570Z,45
2017-01-23T02:06:10.258Z,45.09
2017-01-23T02:06:50.887Z,45.29
2017-01-23T02:07:31.529Z,45.09
2017-01-23T02:08:12.215Z,45.48
2017-01-23T02:08:52.848Z,45.19
2017-01-23T02:09:33.480Z,45.09
2017-01-23T02:10:14.125Z,45.19
2017-01-23T02:10:54.847Z,45.19
2017-01-23T02:11:35.510Z,45.09
2017-01-23T02:12:16.160Z,45.48
2017-01-23T02:12:56.816Z,45.76
2017-01-23T02:13:37.499Z,45.48
2017-01-23T02:14:18.184Z,45.57
2017-01-23T02:14:58.851Z,45.57
2017-01-23T02:15:39.593Z,45.57
2017-01-23T02:16:20.225Z,45.57
2017-01-23T02:17:00.860Z,45.76
2017-01-23T02:17:41.557Z,45.29
2017-01-23T02:18:22.193Z,45.19
2017-01-23T02:19:02.898Z,45.19
2017-01-23T02:19:43.594Z,45.19
2017-01-23T02:20:24.352Z,45.19
2017-01-23T02:21:04.995Z,45.29
2017-01-23T02:21:45.675Z,45.67
2017-01-23T02:22:26.404Z,45.48
2017-01-23T02:23:07.051Z,45.19
2017-01-23T02:23:47.691Z,45.38
2017-01-23T02:24:28.410Z,45.48
2017-01-23T02:25:09.014Z,45
2017-01-23T02:25:49.642Z,45.76
2017-01-23T02:26:30.364Z,45.67
2017-01-23T02:27:11.078Z,45.76
2017-01-23T02:27:51.654Z,45.76
2017-01-23T02:28:32.336Z,45.29
2017-01-23T02:29:13.045Z,45.48
2017-01-23T02:29:53.597Z,45.29
2017-01-23T02:30:34.314Z,45.19
2017-01-23T02:31:14.973Z,45.76
2017-01-23T02:31:55.593Z,45.19
2017-01-23T02:32:36.291Z,45.76
2017-01-23T02:33:16.930Z,45.67
2017-01-23T02:33:57.557Z,45.57
2017-01-23T02:34:38.185Z,45.67
2017-01-23T02:35:18.911Z,45.76
2017-01-23T02:35:59.564Z,45.76
2017-01-23T02:36:40.247Z,45.67
2017-01-23T02:37:20.889Z,45.76
2017-01-23T02:38:01.517Z,45.57
2017-01-23T02:38:42.153Z,45.86
2017-01-23T02:39:22.822Z,45.48
2017-01-23T02:40:03.447Z,45.67
2017-01-23T02:40:44.154Z,45.57
2017-01-23T02:41:24.803Z,45.67
2017-01-23T02:42:05.432Z,45.76
2017-01-23T02:42:46.094Z,45.19
2017-01-23T02:43:26.796Z,45.19
2017-01-23T02:44:07.443Z,45.09
2017-01-23T02:44:48.127Z,45.09
2017-01-23T02:45:28.832Z,45.09
2017-01-23T02:46:09.541Z,45.19
2017-01-23T02:46:50.110Z,45.09
2017-01-23T02:47:30.831Z,45.19
2017-01-23T02:48:11.522Z,45.29
2017-01-23T02:48:52.164Z,45
2017-01-23T02:49:32.863Z,45.29
2017-01-23T02:50:13.496Z,45.19
2017-01-23T02:50:54.128Z,45
2017-01-23T02:51:34.831Z,45.09
2017-01-23T02:52:15.538Z,45.29
2017-01-23T02:52:56.196Z,45.09
2017-01-23T02:53:36.868Z,44.81
2017-01-23T02:54:17.607Z,44.71
2017-01-23T02:54:58.349Z,44.81
2017-01-23T02:55:38.992Z,44.81
2017-01-23T02:56:19.626Z,44.9
2017-01-23T02:57:00.311Z,45.09
2017-01-23T02:57:40.938Z,45.09
2017-01-23T02:58:21.574Z,44.9
2017-01-23T02:59:02.247Z,45.09
2017-01-23T02:59:42.880Z,44.9
2017-01-23T03:00:23.513Z,44.9
2017-01-23T03:01:04.174Z,45.19
2017-01-23T03:01:44.806Z,45.19
2017-01-23T03:02:25.494Z,45.09
2017-01-23T03:03:06.128Z,45.09
2017-01-23T03:03:46.764Z,45
2017-01-23T03:04:27.418Z,45.09
2017-01-23T03:05:08.093Z,45.19
2017-01-23T03:05:48.729Z,45
2017-01-23T03:06:29.381Z,45.67
2017-01-23T03:07:10.135Z,45.09
2017-01-23T03:07:50.771Z,44.9
2017-01-23T03:08:32.092Z,45.09
2017-01-23T03:09:12.725Z,45.19
2017-01-23T03:09:53.359Z,45.09
2017-01-23T03:10:34.083Z,45
2017-01-23T03:11:14.713Z,45
2017-01-23T03:11:55.340Z,45
2017-01-23T03:12:36.008Z,45.09
2017-01-23T03:13:16.645Z,45
2017-01-23T03:13:57.272Z,45
2017-01-23T03:14:37.935Z,45
2017-01-23T03:15:18.561Z,45.19
2017-01-23T03:15:59.253Z,45.29
2017-01-23T03:16:39.989Z,45.19
2017-01-23T03:17:20.744Z,45.76
2017-01-23T03:18:01.384Z,45.29
2017-01-23T03:18:42.096Z,45.19
2017-01-23T03:19:22.709Z,45.19
2017-01-23T03:20:03.342Z,45.09
2017-01-23T03:20:43.991Z,44.9
2017-01-23T03:21:24.763Z,45.38
2017-01-23T03:22:05.404Z,45.76
2017-01-23T03:22:46.035Z,45.67
2017-01-23T03:23:26.697Z,45.29
2017-01-23T03:24:07.325Z,45.19
2017-01-23T03:24:48.002Z,45.57
2017-01-23T03:25:28.739Z,45.57
2017-01-23T03:26:09.412Z,45.74
2017-01-23T03:26:50.062Z,45.67
2017-01-23T03:27:30.780Z,45.76
2017-01-23T03:28:11.429Z,45.09
2017-01-23T03:28:52.061Z,45.19
2017-01-23T03:29:32.743Z,45.38
2017-01-23T03:30:13.494Z,45.38
2017-01-23T03:30:54.138Z,45.76
2017-01-23T03:31:34.774Z,45.09
2017-01-23T03:32:15.431Z,45.29
2017-01-23T03:32:56.077Z,45.19
2017-01-23T03:33:36.787Z,45.09
2017-01-23T03:34:17.425Z,45
2017-01-23T03:34:58.058Z,45.19
2017-01-23T03:35:38.721Z,45.19
2017-01-23T03:36:19.440Z,45.09
2017-01-23T03:37:00.090Z,45.48
2017-01-23T03:37:40.728Z,45.48
2017-01-23T03:38:21.394Z,45.09
2017-01-23T03:39:02.068Z,45.38
2017-01-23T03:39:42.702Z,45.76
2017-01-23T03:40:23.399Z,45.76
2017-01-23T03:41:04.037Z,45.67
2017-01-23T03:41:44.675Z,45
2017-01-23T03:42:25.390Z,45.19
2017-01-23T03:43:06.102Z,45.09
2017-01-23T03:43:46.728Z,45.19
2017-01-23T03:44:27.429Z,45.19
2017-01-23T03:45:08.060Z,45.19
2017-01-23T03:45:48.684Z,45.19
2017-01-23T03:46:29.367Z,45.29
2017-01-23T03:47:10.005Z,45.38
2017-01-23T03:47:50.636Z,45.76
2017-01-23T03:48:31.996Z,45.67
2017-01-23T03:49:12.627Z,45.45
2017-01-23T03:49:53.307Z,45.96
2017-01-23T03:50:34.031Z,45.19
2017-01-23T03:51:14.740Z,45.29
2017-01-23T03:51:55.435Z,45.19
2017-01-23T03:52:36.108Z,45
2017-01-23T03:53:16.845Z,44.71
2017-01-23T03:53:57.474Z,45.09
2017-01-23T03:54:38.122Z,45.09
2017-01-23T03:55:18.797Z,45.09
2017-01-23T03:55:59.427Z,45.19
2017-01-23T03:56:40.159Z,45.29
2017-01-23T03:57:20.806Z,45.19
2017-01-23T03:58:01.436Z,45.09
2017-01-23T03:58:42.070Z,45
2017-01-23T03:59:22.783Z,45
2017-01-23T04:00:03.531Z,45.19
2017-01-23T04:00:44.177Z,44.9
2017-01-23T04:01:24.851Z,45.09
2017-01-23T04:02:05.499Z,45.19
2017-01-23T04:02:46.130Z,45.19
2017-01-23T04:03:26.804Z,45.19
2017-01-23T04:04:07.529Z,45.19
2017-01-23T04:04:48.168Z,44.9
2017-01-23T04:05:28.912Z,44.81
2017-01-23T04:06:09.560Z,45
2017-01-23T04:06:50.231Z,45
2017-01-23T04:07:30.822Z,45
2017-01-23T04:08:11.519Z,45.09
2017-01-23T04:08:52.208Z,45.19
2017-01-23T04:09:32.853Z,45.19
2017-01-23T04:10:13.572Z,45.09
2017-01-23T04:10:54.201Z,45.09
2017-01-23T04:11:34.847Z,45.19
2017-01-23T04:12:15.542Z,45.09
2017-01-23T04:12:56.289Z,45.09
2017-01-23T04:13:36.933Z,45.09
2017-01-23T04:14:17.567Z,45
2017-01-23T04:14:58.220Z,45.19
2017-01-23T04:15:38.859Z,45.09
2017-01-23T04:16:19.495Z,45.19
2017-01-23T04:17:00.177Z,45.09
2017-01-23T04:17:40.836Z,45.19
2017-01-23T04:18:21.514Z,45.09
2017-01-23T04:19:02.245Z,45
2017-01-23T04:19:42.888Z,44.9
2017-01-23T04:20:23.544Z,45.09
2017-01-23T04:21:04.263Z,45
2017-01-23T04:21:44.890Z,44.81
2017-01-23T04:22:25.522Z,45
2017-01-23T04:23:06.185Z,45.19
2017-01-23T04:23:46.895Z,45.09
2017-01-23T04:24:27.537Z,44.81
2017-01-23T04:25:08.219Z,45
2017-01-23T04:25:48.919Z,45.07
2017-01-23T04:26:29.566Z,45.19
2017-01-23T04:27:10.264Z,45.09
2017-01-23T04:27:50.977Z,45.29
2017-01-23T04:28:31.647Z,45.19
2017-01-23T04:29:12.282Z,45.19
2017-01-23T04:29:52.943Z,45.26
2017-01-23T04:30:33.606Z,45.57
2017-01-23T04:31:14.204Z,45.29
2017-01-23T04:31:54.879Z,45.19
2017-01-23T04:32:35.509Z,44.9
2017-01-23T04:33:16.146Z,45
2017-01-23T04:33:56.800Z,45.09
2017-01-23T04:34:37.533Z,45
2017-01-23T04:35:18.175Z,45
2017-01-23T04:35:58.836Z,45
2017-01-23T04:36:39.504Z,45
2017-01-23T04:37:20.132Z,45.19
2017-01-23T04:38:00.821Z,45.19
2017-01-23T04:38:41.506Z,45.19
2017-01-23T04:39:22.137Z,45.19
2017-01-23T04:40:02.849Z,45.09
2017-01-23T04:40:43.476Z,45.09
2017-01-23T04:41:24.102Z,45.36
2017-01-23T04:42:04.777Z,45.38
2017-01-23T04:42:45.407Z,45.09
2017-01-23T04:43:26.036Z,45.09
2017-01-23T04:44:06.703Z,45
2017-01-23T04:44:47.330Z,45.17
2017-01-23T04:45:27.963Z,45.17
2017-01-23T04:46:08.630Z,45.65
2017-01-23T04:46:49.338Z,45.94
2017-01-23T04:47:29.964Z,45.17
2017-01-23T04:48:10.596Z,45.19
2017-01-23T04:48:51.279Z,45.09
2017-01-23T04:49:31.903Z,45
2017-01-23T04:50:12.600Z,44.9
2017-01-23T04:50:53.241Z,45.09
2017-01-23T04:51:33.918Z,45.09
2017-01-23T04:52:14.548Z,45.09
2017-01-23T04:52:55.271Z,45.09
2017-01-23T04:53:35.921Z,45.36
2017-01-23T04:54:16.564Z,45.19
2017-01-23T04:54:57.216Z,45.29
2017-01-23T04:55:37.848Z,45.38
2017-01-23T04:56:18.474Z,45.67
2017-01-23T04:56:59.175Z,45.09
2017-01-23T04:57:39.848Z,45.19
2017-01-23T04:58:20.489Z,45.07
2017-01-23T04:59:01.135Z,45.09
2017-01-23T04:59:41.862Z,45.29
2017-01-23T05:00:22.492Z,45.09
2017-01-23T05:01:03.130Z,44.71
2017-01-23T05:01:43.777Z,44.81
2017-01-23T05:02:24.402Z,44.9
2017-01-23T05:03:05.140Z,45
2017-01-23T05:03:45.818Z,45.09
2017-01-23T05:04:26.444Z,44.98
2017-01-23T05:05:07.130Z,45.09
2017-01-23T05:05:47.766Z,45.17
2017-01-23T05:06:28.404Z,45.55
2017-01-23T05:07:09.078Z,45.17
2017-01-23T05:07:49.770Z,45.19
2017-01-23T05:08:30.404Z,45.26
2017-01-23T05:09:11.038Z,45.74
2017-01-23T05:09:51.826Z,45.36
2017-01-23T05:10:32.529Z,45
2017-01-23T05:11:13.175Z,45.09
2017-01-23T05:11:53.895Z,44.62
2017-01-23T05:12:34.572Z,44.71
2017-01-23T05:13:15.204Z,44.81
2017-01-23T05:13:55.888Z,44.88
2017-01-23T05:14:36.515Z,44.9
2017-01-23T05:15:17.172Z,44.9
2017-01-23T05:15:57.849Z,44.9
2017-01-23T05:16:38.561Z,45
2017-01-23T05:17:19.238Z,45
2017-01-23T05:17:59.822Z,45.19
2017-01-23T05:18:40.480Z,45
2017-01-23T05:19:21.112Z,45
2017-01-23T05:20:01.741Z,45.07
2017-01-23T05:20:42.408Z,45.36
2017-01-23T05:21:23.040Z,45.07
2017-01-23T05:22:03.697Z,45.09
2017-01-23T05:22:44.427Z,45.09
2017-01-23T05:23:25.113Z,45
2017-01-23T05:24:05.783Z,44.81
2017-01-23T05:24:46.459Z,45.09
2017-01-23T05:25:27.087Z,45.09
2017-01-23T05:26:07.715Z,44.62
2017-01-23T05:26:48.392Z,44.9
2017-01-23T05:27:29.022Z,44.9
2017-01-23T05:28:09.664Z,44.9
2017-01-23T05:28:50.378Z,44.81
2017-01-23T05:29:31.100Z,44.9
2017-01-23T05:30:11.733Z,44.71
2017-01-23T05:30:52.388Z,45
2017-01-23T05:31:33.085Z,45
2017-01-23T05:32:13.719Z,44.98
2017-01-23T05:32:54.405Z,45.07
2017-01-23T05:33:35.134Z,45.19
2017-01-23T05:34:15.775Z,44.98
2017-01-23T05:34:56.405Z,45.09
2017-01-23T05:35:37.137Z,44.79
2017-01-23T05:36:17.759Z,45.07
2017-01-23T05:36:58.396Z,44.98
2017-01-23T05:37:39.078Z,45
2017-01-23T05:38:19.778Z,44.9
2017-01-23T05:39:00.441Z,44.9
2017-01-23T05:39:41.094Z,45.19
2017-01-23T05:40:21.825Z,45.17
2017-01-23T05:41:02.448Z,45.74
2017-01-23T05:41:43.087Z,45.07
2017-01-23T05:42:23.739Z,45.38
2017-01-23T05:43:04.380Z,45.76
2017-01-23T05:43:45.099Z,45.29
2017-01-23T05:44:25.826Z,45.17
2017-01-23T05:45:06.469Z,45
2017-01-23T05:45:47.100Z,45.19
2017-01-23T05:46:27.779Z,45
2017-01-23T05:47:08.434Z,45.07
2017-01-23T05:47:49.058Z,45.09
2017-01-23T05:48:29.785Z,44.88
2017-01-23T05:49:10.539Z,44.98
2017-01-23T05:49:51.179Z,45.09
2017-01-23T05:50:31.895Z,45.09
2017-01-23T05:51:12.530Z,44.9
2017-01-23T05:51:53.156Z,44.9
2017-01-23T05:52:33.861Z,45
2017-01-23T05:53:14.605Z,44.98
2017-01-23T05:53:55.274Z,45.07
2017-01-23T05:54:35.901Z,45
2017-01-23T05:55:16.590Z,45.09
2017-01-23T05:55:57.216Z,45.17
2017-01-23T05:56:37.868Z,45.09
2017-01-23T05:57:19.451Z,45
2017-01-23T05:58:00.178Z,44.98
2017-01-23T05:58:40.835Z,45.09
2017-01-23T05:59:21.490Z,45
2017-01-23T06:00:02.120Z,44.81
2017-01-23T06:00:42.752Z,45
2017-01-23T06:01:23.409Z,45
2017-01-23T06:02:04.075Z,45.09
2017-01-23T06:02:44.711Z,45.09
2017-01-23T06:03:25.337Z,45.19
2017-01-23T06:04:06.047Z,45
2017-01-23T06:04:46.681Z,45.07
2017-01-23T06:05:27.387Z,45.17
2017-01-23T06:06:08.093Z,45.17
2017-01-23T06:06:48.742Z,45.07
2017-01-23T06:07:29.402Z,45
2017-01-23T06:08:10.122Z,45
2017-01-23T06:08:50.821Z,44.98
2017-01-23T06:09:31.467Z,44.98
2017-01-23T06:10:12.128Z,45.09
2017-01-23T06:10:52.843Z,45
2017-01-23T06:11:33.463Z,44.79
2017-01-23T06:12:14.100Z,45.07
2017-01-23T06:12:54.760Z,45.19
2017-01-23T06:13:35.385Z,45.84
2017-01-23T06:14:16.126Z,45.19
2017-01-23T06:14:56.801Z,45.07
2017-01-23T06:15:37.444Z,45.29
2017-01-23T06:16:18.138Z,45.74
2017-01-23T06:16:58.862Z,45.74
2017-01-23T06:17:39.621Z,45.17
2017-01-23T06:18:20.259Z,45.17
2017-01-23T06:19:00.906Z,45.09
2017-01-23T06:19:41.571Z,45.07
2017-01-23T06:20:22.214Z,45.17
2017-01-23T06:21:02.912Z,44.81
2017-01-23T06:21:43.595Z,44.71
2017-01-23T06:22:24.221Z,44.81
2017-01-23T06:23:04.934Z,44.81
2017-01-23T06:23:45.567Z,44.81
2017-01-23T06:24:26.206Z,45.09
2017-01-23T06:25:06.893Z,45.09
2017-01-23T06:25:47.613Z,44.9
2017-01-23T06:26:28.368Z,45.09
2017-01-23T06:27:09.009Z,44.81
2017-01-23T06:27:49.670Z,44.9
2017-01-23T06:28:30.345Z,45
2017-01-23T06:29:10.944Z,44.88
2017-01-23T06:29:51.595Z,45.17
2017-01-23T06:30:32.271Z,45.17
2017-01-23T06:31:12.911Z,45.19
2017-01-23T06:31:53.546Z,44.98
2017-01-23T06:32:34.248Z,45.09
2017-01-23T06:33:14.880Z,45.07
2017-01-23T06:33:55.548Z,45.09
2017-01-23T06:34:36.252Z,45
2017-01-23T06:35:16.888Z,44.9
2017-01-23T06:35:57.598Z,44.79
2017-01-23T06:36:38.296Z,45
2017-01-23T06:37:18.927Z,45.07
2017-01-23T06:37:59.554Z,44.98
2017-01-23T06:38:40.294Z,45.09
2017-01-23T06:39:20.978Z,45.19
2017-01-23T06:40:01.622Z,44.98
2017-01-23T06:40:42.281Z,45.07
2017-01-23T06:41:22.987Z,45.55
2017-01-23T06:42:03.624Z,45.55
2017-01-23T06:42:44.312Z,45.74
2017-01-23T06:43:24.992Z,44.98
2017-01-23T06:44:05.617Z,45
2017-01-23T06:44:46.295Z,45.19
2017-01-23T06:45:26.920Z,45.07
2017-01-23T06:46:07.563Z,45.09
2017-01-23T06:46:48.275Z,45.17
2017-01-23T06:47:28.984Z,45.17
2017-01-23T06:48:09.736Z,45.07
2017-01-23T06:48:50.390Z,45.17
2017-01-23T06:49:31.097Z,45.36
2017-01-23T06:50:11.783Z,45.07
2017-01-23T06:50:52.417Z,45.19
2017-01-23T06:51:33.178Z,45.17
2017-01-23T06:52:13.891Z,45.65
2017-01-23T06:52:54.535Z,45.55
2017-01-23T06:53:35.181Z,45.65
2017-01-23T06:54:15.845Z,45.55
2017-01-23T06:54:56.473Z,45.55
2017-01-23T06:55:37.115Z,45.65
2017-01-23T06:56:17.758Z,45.26
2017-01-23T06:56:58.474Z,45.74
2017-01-23T06:57:39.112Z,45.45
2017-01-23T06:58:19.767Z,45.26
2017-01-23T06:59:00.462Z,45.45
2017-01-23T06:59:41.101Z,45.94
2017-01-23T07:00:21.732Z,45.67
2017-01-23T07:01:02.391Z,45.55
2017-01-23T07:01:43.016Z,45.07
2017-01-23T07:02:23.747Z,45
2017-01-23T07:03:04.378Z,44.98
2017-01-23T07:03:45.019Z,45.19
2017-01-23T07:04:25.674Z,45.26
2017-01-23T07:05:06.422Z,45.45
2017-01-23T07:05:47.062Z,45.94
2017-01-23T07:06:27.698Z,45.17
2017-01-23T07:07:08.343Z,45.07
2017-01-23T07:07:48.969Z,44.98
2017-01-23T07:08:29.618Z,45.26
2017-01-23T07:09:10.297Z,45.17
2017-01-23T07:09:50.928Z,45.09
2017-01-23T07:10:31.565Z,45
2017-01-23T07:11:12.229Z,45.09
2017-01-23T07:11:52.871Z,44.98
2017-01-23T07:12:33.502Z,45.09
2017-01-23T07:13:14.173Z,45.17
2017-01-23T07:13:54.806Z,45.17
2017-01-23T07:14:35.499Z,45.17
2017-01-23T07:15:16.207Z,45.17
2017-01-23T07:15:56.959Z,45.17
2017-01-23T07:16:37.609Z,45.17
2017-01-23T07:17:18.343Z,45.17
2017-01-23T07:17:59.050Z,45.26
2017-01-23T07:18:39.694Z,45.19
2017-01-23T07:19:20.324Z,45.55
2017-01-23T07:20:00.984Z,45.65
2017-01-23T07:20:41.622Z,45.45
2017-01-23T07:21:22.320Z,45.36
2017-01-23T07:22:02.947Z,45.07
2017-01-23T07:22:43.583Z,45.19
2017-01-23T07:23:24.288Z,45.17
2017-01-23T07:24:04.997Z,45.07
2017-01-23T07:24:45.681Z,45.26
2017-01-23T07:25:26.311Z,45.07
2017-01-23T07:26:07.006Z,45.07
2017-01-23T07:26:47.649Z,45.36
2017-01-23T07:27:28.276Z,45.07
2017-01-23T07:28:08.927Z,45.07
2017-01-23T07:28:49.601Z,44.98
2017-01-23T07:29:30.216Z,44.88
2017-01-23T07:30:10.852Z,45.17
2017-01-23T07:30:51.566Z,44.98
2017-01-23T07:31:32.208Z,45.09
2017-01-23T07:32:12.835Z,44.81
2017-01-23T07:32:53.494Z,44.69
2017-01-23T07:33:34.142Z,44.88
2017-01-23T07:34:14.772Z,44.98
2017-01-23T07:34:55.434Z,45.07
2017-01-23T07:35:36.073Z,45.17
2017-01-23T07:36:16.756Z,45.07
2017-01-23T07:36:57.422Z,44.98
2017-01-23T07:37:38.053Z,45
2017-01-23T07:38:18.824Z,45.07
2017-01-23T07:38:59.526Z,45.09
2017-01-23T07:39:40.224Z,44.98
2017-01-23T07:40:20.806Z,44.88
2017-01-23T07:41:01.472Z,44.79
2017-01-23T07:41:42.200Z,44.69
2017-01-23T07:42:22.851Z,45.17
2017-01-23T07:43:03.487Z,45.07
2017-01-23T07:43:44.178Z,45.07
2017-01-23T07:44:24.823Z,44.88
2017-01-23T07:45:05.506Z,45
2017-01-23T07:45:46.257Z,44.79
2017-01-23T07:46:26.900Z,44.62
2017-01-23T07:47:07.592Z,44.81
2017-01-23T07:47:48.266Z,44.81
2017-01-23T07:48:28.896Z,45.07
2017-01-23T07:49:09.544Z,44.79
2017-01-23T07:49:50.240Z,44.88
2017-01-23T07:50:30.962Z,44.69
2017-01-23T07:51:11.608Z,44.59
2017-01-23T07:51:52.238Z,45.17
2017-01-23T07:52:32.950Z,44.98
2017-01-23T07:53:13.592Z,45.45
2017-01-23T07:53:54.293Z,45.36
2017-01-23T07:54:34.959Z,44.98
2017-01-23T07:55:15.588Z,44.69
2017-01-23T07:55:56.292Z,44.79
2017-01-23T07:56:36.916Z,44.88
2017-01-23T07:57:17.559Z,44.81
2017-01-23T07:57:58.274Z,44.69
2017-01-23T07:58:38.963Z,44.69
2017-01-23T07:59:19.678Z,44.69
2017-01-23T08:00:00.228Z,44.88
2017-01-23T08:00:40.881Z,44.79
2017-01-23T08:01:21.568Z,44.4
2017-01-23T08:02:02.161Z,44.4
2017-01-23T08:02:42.892Z,44.4
2017-01-23T08:03:23.622Z,44.43
2017-01-23T08:04:04.247Z,44.5
2017-01-23T08:04:44.952Z,44.52
2017-01-23T08:05:25.611Z,44.5
2017-01-23T08:06:06.253Z,44.43
2017-01-23T08:06:46.964Z,44.43
2017-01-23T08:07:27.596Z,44.59
2017-01-23T08:08:08.223Z,44.5
2017-01-23T08:08:48.884Z,44.4
2017-01-23T08:09:29.515Z,44.4
2017-01-23T08:10:10.169Z,44.5
2017-01-23T08:10:50.888Z,44.52
2017-01-23T08:11:31.557Z,44.02
2017-01-23T08:12:12.189Z,44.5
2017-01-23T08:12:52.819Z,44.31
2017-01-23T08:13:33.493Z,44.5
2017-01-23T08:14:14.090Z,44.5
2017-01-23T08:14:54.774Z,44.02
2017-01-23T08:15:35.495Z,44.5
2017-01-23T08:16:16.208Z,44.71
2017-01-23T08:16:56.901Z,44.21
2017-01-23T08:17:37.593Z,44.59
2017-01-23T08:18:18.226Z,44.5
2017-01-23T08:18:58.871Z,44.59
2017-01-23T08:19:39.524Z,44.12
2017-01-23T08:20:20.259Z,44.31
2017-01-23T08:21:00.892Z,44.31
2017-01-23T08:21:41.517Z,44.31
2017-01-23T08:22:22.195Z,44.21
2017-01-23T08:23:02.816Z,44.31
2017-01-23T08:23:43.532Z,44.21
2017-01-23T08:24:24.244Z,44.31
2017-01-23T08:25:04.887Z,44.02
2017-01-23T08:25:45.603Z,44.12
2017-01-23T08:26:26.298Z,44.12
2017-01-23T08:27:06.923Z,44.4
2017-01-23T08:27:47.574Z,44.21
2017-01-23T08:28:28.264Z,44.02
2017-01-23T08:29:09.012Z,44.12
2017-01-23T08:29:49.642Z,44.31
2017-01-23T08:30:30.379Z,44.12
2017-01-23T08:31:11.042Z,44.21
2017-01-23T08:31:51.766Z,44.31
2017-01-23T08:32:32.406Z,44.31
2017-01-23T08:33:13.141Z,44.4
2017-01-23T08:33:53.820Z,44.02
2017-01-23T08:34:34.455Z,43.73
2017-01-23T08:35:15.156Z,44.02
2017-01-23T08:35:55.807Z,44.21
2017-01-23T08:36:36.459Z,44.4
2017-01-23T08:37:17.116Z,44.12
2017-01-23T08:37:57.872Z,43.54
2017-01-23T08:38:38.585Z,44.12
2017-01-23T08:39:19.239Z,44.4
2017-01-23T08:39:59.860Z,44.31
2017-01-23T08:40:40.565Z,44.4
2017-01-23T08:41:21.202Z,44.02
2017-01-23T08:42:01.922Z,43.73
2017-01-23T08:42:42.647Z,44.02
2017-01-23T08:43:23.291Z,43.54
2017-01-23T08:44:04.000Z,43.63
2017-01-23T08:44:44.681Z,43.76
2017-01-23T08:45:25.408Z,43.83
2017-01-23T08:46:06.060Z,43.73
2017-01-23T08:46:46.716Z,43.73
2017-01-23T08:47:27.419Z,43.63
2017-01-23T08:48:08.048Z,43.44
2017-01-23T08:48:48.699Z,43.66